CW3862 Weather Reports


Display with metric or nautical units.
time (UTC)temp
F
wind
direction
speed
MPH
gust
MPH
rain 1hr
in
rain 24hr
in
rain mn
in
humidity
%
barometer
mb
20191014150004 59 143 2.0 6.0 0.00 0.00 0.00 68 1011.4
20191014144729 57 130 1.0 4.0 0.00 0.00 0.00 72 1011.3
20191014143121 56 130 0.0 6.0 0.00 0.00 0.00 74 1011.2
20191014141643 57 125 4.0 9.0 0.00 0.00 0.00 78 1011.0
20191014140118 57 154 2.0 5.0 0.00 0.00 0.00 75 1010.9
20191014134618 57 156 2.0 5.0 0.00 0.00 0.00 76 1010.9
20191014133159 57 227 2.0 3.0 0.00 0.00 0.00 78 1010.9
20191014131643 57 227 0.0 4.0 0.00 0.00 0.00 79 1010.8
20191014130152 57 228 0.0 2.0 0.00 0.00 0.00 80 1010.8
20191014124710 56 228 0.0 0.0 0.00 0.00 0.00 81 1010.7
20191014123047 56 228 0.0 2.0 0.00 0.00 0.00 80 1010.6
20191014121610 56 228 0.0 2.0 0.00 0.00 0.00 80 1010.5
20191014120116 56 228 0.0 2.0 0.00 0.00 0.00 81 1010.4
20191014114635 56 228 1.0 3.0 0.00 0.00 0.00 81 1010.3
20191014113124 56 228 1.0 3.0 0.00 0.00 0.00 82 1010.0
20191014111624 56 228 1.0 3.0 0.00 0.00 0.00 82 1009.9
20191014104619 55 228 0.0 0.0 0.00 0.00 0.00 84 1009.9
20191014103139 55 228 0.0 2.0 0.00 0.00 0.00 83 1009.9
20191014101601 56 228 0.0 1.0 0.00 0.00 0.00 82 1009.9
20191014100129 56 228 0.0 0.0 0.00 0.00 0.00 81 1010.1
20191014094620 57 228 0.0 0.0 0.00 0.00 0.00 79 1010.1
20191014093100 57 228 0.0 1.0 0.00 0.00 0.00 79 1010.1
20191014091611 58 228 0.0 1.0 0.00 0.00 0.00 78 1010.1
20191014090106 59 228 0.0 3.0 0.00 0.00 0.00 77 1010.1
20191014084558 59 228 1.0 3.0 0.00 0.00 0.00 76 1010.3
20191014083033 59 228 1.0 3.0 0.00 0.00 0.00 76 1010.1
20191014081524 60 228 1.0 4.0 0.00 0.00 0.00 76 1010.1
20191014080057 60 228 3.0 5.0 0.00 0.00 0.00 76 1010.2
20191014074526 60 228 2.0 6.0 0.00 0.00 0.00 77 1010.3
20191014073049 60 228 3.0 6.0 0.00 0.00 0.00 77 1010.4
20191014071542 60 224 2.0 6.0 0.00 0.00 0.00 77 1010.1
20191014070036 59 235 3.0 6.0 0.00 0.00 0.00 78 1010.4
20191014064606 59 234 3.0 6.0 0.00 0.00 0.00 79 1010.2
20191014063051 59 240 3.0 6.0 0.00 0.00 0.00 80 1010.3
20191014061522 59 173 3.0 6.0 0.00 0.00 0.00 82 1010.2
20191014060032 59 172 2.0 5.0 0.00 0.00 0.00 82 1010.1
20191014054520 59 171 2.0 5.0 0.00 0.00 0.00 83 1009.9
20191014053039 59 166 2.0 6.0 0.00 0.00 0.00 82 1010.0
20191014051541 59 170 1.0 5.0 0.00 0.00 0.00 82 1010.0
20191014050020 59 169 1.0 6.0 0.00 0.00 0.00 82 1010.0
20191014044518 59 215 1.0 5.0 0.00 0.00 0.00 82 1009.9
20191014043032 59 215 2.0 4.0 0.00 0.00 0.00 82 1009.9
20191014041538 59 198 2.0 4.0 0.00 0.00 0.00 82 1009.9
20191014040013 60 167 1.0 6.0 0.00 0.00 0.00 82 1009.4
20191014034528 60 214 2.0 6.0 0.00 0.00 0.00 82 1009.4
20191014033035 60 237 4.0 10.0 0.00 0.00 0.00 82 1009.3
20191014031507 60 228 3.0 9.0 0.00 0.00 0.00 82 1009.3
20191014030010 60 230 3.0 8.0 0.00 0.00 0.00 82 1009.2
20191014024516 61 223 4.0 7.0 0.00 0.00 0.00 82 1009.1
20191014023028 61 156 2.0 6.0 0.00 0.00 0.00 80 1008.8
20191014021503 62 213 1.0 5.0 0.00 0.00 0.00 78 1008.6
20191014020005 63 221 2.0 5.0 0.00 0.00 0.00 76 1008.5
20191014014711 63 200 2.0 7.0 0.00 0.00 0.00 75 1008.2
20191014013227 65 169 3.0 9.0 0.00 0.00 0.00 72 1007.9
20191014011643 66 125 1.0 4.0 0.00 0.00 0.00 68 1007.7
20191014010210 67 174 1.0 6.0 0.00 0.00 0.00 66 1007.6
20191014004709 68 230 5.0 11.0 0.00 0.00 0.00 64 1007.5
20191014003141 69 249 3.0 13.0 0.00 0.00 0.00 62 1007.3
20191014001611 70 209 4.0 12.0 0.00 0.00 0.00 57 1007.2
20191014000150 72 201 6.0 14.0 0.00 0.00 0.00 53 1007.1
20191013234801 73 229 7.0 14.0 0.00 0.00 0.00 51 1007.1
20191013233221 74 219 5.0 11.0 0.00 0.00 0.00 48 1007.1
20191013231624 75 261 5.0 12.0 0.00 0.00 0.00 48 1007.1
20191013230204 76 250 6.0 12.0 0.00 0.00 0.00 44 1007.2
20191013224718 76 227 4.0 11.0 0.00 0.00 0.00 45 1007.2
20191013223213 78 260 7.0 13.0 0.00 0.00 0.00 40 1007.2
20191013220152 79 246 6.0 14.0 0.00 0.00 0.00 33 1007.0
20191013214659 79 236 6.0 12.0 0.00 0.00 0.00 35 1007.0
20191013213126 79 240 7.0 12.0 0.00 0.00 0.00 34 1007.0
20191013211612 79 220 6.0 12.0 0.00 0.00 0.00 36 1007.0
20191013210106 78 198 5.0 17.0 0.00 0.00 0.00 38 1007.0
20191013204606 78 214 4.0 13.0 0.00 0.00 0.00 39 1007.1
20191013203135 79 238 4.0 10.0 0.00 0.00 0.00 35 1007.3
20191013201608 79 246 3.0 8.0 0.00 0.00 0.00 34 1007.5
20191013200141 78 174 3.0 11.0 0.00 0.00 0.00 34 1007.6
20191013194715 78 221 5.0 11.0 0.00 0.00 0.00 31 1007.8
20191013193142 78 225 4.0 10.0 0.00 0.00 0.00 30 1008.0
20191013191807 77 179 5.0 9.0 0.00 0.00 0.00 29 1008.2
20191013190104 78 227 4.0 9.0 0.00 0.00 0.00 29 1008.3
20191013184547 76 239 0.0 0.0 0.00 0.00 0.00 30 1008.5
20191013183122 76 234 0.0 0.0 0.00 0.00 0.00 29 1008.7
20191013181539 75 225 0.0 0.0 0.00 0.00 0.00 30 1008.8
20191013180033 74 229 0.0 0.0 0.00 0.00 0.00 30 1008.8
20191013174521 72 243 0.0 0.0 0.00 0.00 0.00 32 1009.0
20191013173013 71 231 0.0 0.0 0.00 0.00 0.00 32 1009.2
20191013171618 69 175 0.0 4.0 0.00 0.00 0.00 33 1009.3
20191013163033 63 196 1.0 2.0 0.00 0.00 0.00 38 1009.3
20191013161653 62 196 0.0 0.0 0.00 0.00 0.00 39 1009.2